sensor_id;sensor_type;location;lat;lon;timestamp;temperature;humidity
39099;DHT22;24844;52.380;7.018;2023-03-14T00:00:47;12.40;99.90
39099;DHT22;24844;52.380;7.018;2023-03-14T00:03:12;12.30;99.90
39099;DHT22;24844;52.380;7.018;2023-03-14T00:05:38;12.40;99.90
39099;DHT22;24844;52.380;7.018;2023-03-14T00:08:04;12.50;99.90
39099;DHT22;24844;52.380;7.018;2023-03-14T00:10:29;12.30;99.90
39099;DHT22;24844;52.380;7.018;2023-03-14T00:12:55;12.30;99.90
39099;DHT22;24844;52.380;7.018;2023-03-14T00:15:20;12.20;99.90
39099;DHT22;24844;52.380;7.018;2023-03-14T00:17:46;12.40;99.90
39099;DHT22;24844;52.380;7.018;2023-03-14T00:20:12;12.40;99.90
39099;DHT22;24844;52.380;7.018;2023-03-14T00:22:38;12.20;99.90
39099;DHT22;24844;52.380;7.018;2023-03-14T00:25:05;12.20;99.90
39099;DHT22;24844;52.380;7.018;2023-03-14T00:27:32;12.20;99.90
39099;DHT22;24844;52.380;7.018;2023-03-14T00:29:58;12.20;99.90
39099;DHT22;24844;52.380;7.018;2023-03-14T00:32:23;12.00;99.90
39099;DHT22;24844;52.380;7.018;2023-03-14T00:34:49;12.00;99.90
39099;DHT22;24844;52.380;7.018;2023-03-14T00:37:15;12.00;99.90
39099;DHT22;24844;52.380;7.018;2023-03-14T00:39:40;12.20;99.90
39099;DHT22;24844;52.380;7.018;2023-03-14T00:42:06;12.10;99.90
39099;DHT22;24844;52.380;7.018;2023-03-14T00:44:32;12.10;99.90
39099;DHT22;24844;52.380;7.018;2023-03-14T00:46:58;12.10;99.90
39099;DHT22;24844;52.380;7.018;2023-03-14T00:49:24;12.10;99.90
39099;DHT22;24844;52.380;7.018;2023-03-14T00:51:50;12.20;99.90
39099;DHT22;24844;52.380;7.018;2023-03-14T00:54:17;12.20;99.90
39099;DHT22;24844;52.380;7.018;2023-03-14T00:56:42;12.30;99.90
39099;DHT22;24844;52.380;7.018;2023-03-14T00:59:08;12.20;99.90
39099;DHT22;24844;52.380;7.018;2023-03-14T01:01:34;12.30;99.90
39099;DHT22;24844;52.380;7.018;2023-03-14T01:04:00;12.30;99.90
39099;DHT22;24844;52.380;7.018;2023-03-14T01:06:28;12.30;99.90
39099;DHT22;24844;52.380;7.018;2023-03-14T01:08:55;12.50;99.90
39099;DHT22;24844;52.380;7.018;2023-03-14T01:11:32;12.40;99.90
39099;DHT22;24844;52.380;7.018;2023-03-14T01:13:58;12.30;99.90
39099;DHT22;24844;52.380;7.018;2023-03-14T01:16:26;12.30;99.90
39099;DHT22;24844;52.380;7.018;2023-03-14T01:18:53;12.20;99.90
39099;DHT22;24844;52.380;7.018;2023-03-14T01:21:25;12.50;99.90
39099;DHT22;24844;52.380;7.018;2023-03-14T01:23:52;12.50;99.90
39099;DHT22;24844;52.380;7.018;2023-03-14T01:26:20;12.40;99.90
39099;DHT22;24844;52.380;7.018;2023-03-14T01:28:47;12.30;99.90
39099;DHT22;24844;52.380;7.018;2023-03-14T01:31:13;12.60;99.90
39099;DHT22;24844;52.380;7.018;2023-03-14T01:33:40;12.60;99.90
39099;DHT22;24844;52.380;7.018;2023-03-14T01:36:06;13.00;99.90
39099;DHT22;24844;52.380;7.018;2023-03-14T01:38:33;12.70;99.90
39099;DHT22;24844;52.380;7.018;2023-03-14T01:41:00;12.40;99.90
39099;DHT22;24844;52.380;7.018;2023-03-14T01:43:25;12.20;99.90
39099;DHT22;24844;52.380;7.018;2023-03-14T01:51:16;11.80;99.90
39099;DHT22;24844;52.380;7.018;2023-03-14T01:53:42;11.90;99.90
39099;DHT22;24844;52.380;7.018;2023-03-14T01:56:11;12.10;99.90
39099;DHT22;24844;52.380;7.018;2023-03-14T01:58:39;12.10;99.90
39099;DHT22;24844;52.380;7.018;2023-03-14T02:01:06;12.00;99.90
39099;DHT22;24844;52.380;7.018;2023-03-14T02:03:40;12.10;99.90
39099;DHT22;24844;52.380;7.018;2023-03-14T02:06:11;12.00;99.90
39099;DHT22;24844;52.380;7.018;2023-03-14T02:08:37;12.10;99.90
39099;DHT22;24844;52.380;7.018;2023-03-14T02:11:05;11.90;99.90
39099;DHT22;24844;52.380;7.018;2023-03-14T02:13:32;11.90;99.90
39099;DHT22;24844;52.380;7.018;2023-03-14T02:15:58;11.90;99.90
39099;DHT22;24844;52.380;7.018;2023-03-14T02:18:23;11.90;99.90
39099;DHT22;24844;52.380;7.018;2023-03-14T02:21:16;12.00;99.90
39099;DHT22;24844;52.380;7.018;2023-03-14T02:26:31;11.90;99.90
39099;DHT22;24844;52.380;7.018;2023-03-14T02:28:57;11.80;99.90
39099;DHT22;24844;52.380;7.018;2023-03-14T02:31:23;11.90;99.90
39099;DHT22;24844;52.380;7.018;2023-03-14T02:33:49;11.80;99.90
39099;DHT22;24844;52.380;7.018;2023-03-14T02:36:17;11.70;99.90
39099;DHT22;24844;52.380;7.018;2023-03-14T02:38:58;11.80;99.90
39099;DHT22;24844;52.380;7.018;2023-03-14T02:41:29;11.90;99.90
39099;DHT22;24844;52.380;7.018;2023-03-14T02:43:55;11.80;99.90
39099;DHT22;24844;52.380;7.018;2023-03-14T02:46:21;12.20;99.90
39099;DHT22;24844;52.380;7.018;2023-03-14T02:48:51;12.10;99.90
39099;DHT22;24844;52.380;7.018;2023-03-14T02:51:17;12.00;99.90
39099;DHT22;24844;52.380;7.018;2023-03-14T02:53:43;11.90;99.90
39099;DHT22;24844;52.380;7.018;2023-03-14T02:56:09;11.80;99.90
39099;DHT22;24844;52.380;7.018;2023-03-14T02:58:35;11.80;99.90
39099;DHT22;24844;52.380;7.018;2023-03-14T03:01:01;11.60;99.90
39099;DHT22;24844;52.380;7.018;2023-03-14T03:03:26;11.70;99.90
39099;DHT22;24844;52.380;7.018;2023-03-14T03:05:54;11.80;99.90
39099;DHT22;24844;52.380;7.018;2023-03-14T03:08:21;11.80;99.90
39099;DHT22;24844;52.380;7.018;2023-03-14T03:10:47;11.70;99.90
39099;DHT22;24844;52.380;7.018;2023-03-14T03:13:13;11.50;99.90
39099;DHT22;24844;52.380;7.018;2023-03-14T03:15:38;11.40;99.90
39099;DHT22;24844;52.380;7.018;2023-03-14T03:18:04;11.50;99.90
39099;DHT22;24844;52.380;7.018;2023-03-14T03:20:30;11.50;99.90
39099;DHT22;24844;52.380;7.018;2023-03-14T03:22:56;11.10;99.90
39099;DHT22;24844;52.380;7.018;2023-03-14T03:25:21;11.10;99.90
39099;DHT22;24844;52.380;7.018;2023-03-14T03:27:47;11.30;99.90
39099;DHT22;24844;52.380;7.018;2023-03-14T03:30:13;11.30;99.90
39099;DHT22;24844;52.380;7.018;2023-03-14T03:32:38;11.20;99.90
39099;DHT22;24844;52.380;7.018;2023-03-14T03:35:05;10.80;99.90
39099;DHT22;24844;52.380;7.018;2023-03-14T03:37:32;10.80;99.90
39099;DHT22;24844;52.380;7.018;2023-03-14T03:39:57;10.40;99.90
39099;DHT22;24844;52.380;7.018;2023-03-14T03:42:23;10.10;99.90
39099;DHT22;24844;52.380;7.018;2023-03-14T03:44:49;10.10;99.90
39099;DHT22;24844;52.380;7.018;2023-03-14T03:47:15;10.00;99.90
39099;DHT22;24844;52.380;7.018;2023-03-14T03:49:40;9.90;99.90
39099;DHT22;24844;52.380;7.018;2023-03-14T03:52:06;9.90;99.90
39099;DHT22;24844;52.380;7.018;2023-03-14T03:54:32;9.80;99.90
39099;DHT22;24844;52.380;7.018;2023-03-14T03:56:57;9.70;99.90
39099;DHT22;24844;52.380;7.018;2023-03-14T03:59:23;9.70;99.90
39099;DHT22;24844;52.380;7.018;2023-03-14T04:01:49;9.50;99.90
39099;DHT22;24844;52.380;7.018;2023-03-14T04:04:14;9.70;99.90
39099;DHT22;24844;52.380;7.018;2023-03-14T04:06:40;9.60;99.90
39099;DHT22;24844;52.380;7.018;2023-03-14T04:09:07;9.40;99.90
39099;DHT22;24844;52.380;7.018;2023-03-14T04:11:33;9.50;99.90
39099;DHT22;24844;52.380;7.018;2023-03-14T04:13:58;9.40;99.90
39099;DHT22;24844;52.380;7.018;2023-03-14T04:16:25;9.40;99.90
39099;DHT22;24844;52.380;7.018;2023-03-14T04:18:51;9.40;99.90
39099;DHT22;24844;52.380;7.018;2023-03-14T04:21:18;9.40;99.90
39099;DHT22;24844;52.380;7.018;2023-03-14T04:23:43;9.30;99.90
39099;DHT22;24844;52.380;7.018;2023-03-14T04:26:10;9.30;99.90
39099;DHT22;24844;52.380;7.018;2023-03-14T04:28:35;9.50;99.90
39099;DHT22;24844;52.380;7.018;2023-03-14T04:31:14;9.30;99.90
39099;DHT22;24844;52.380;7.018;2023-03-14T04:33:40;9.30;99.90
39099;DHT22;24844;52.380;7.018;2023-03-14T04:36:07;9.20;99.90
39099;DHT22;24844;52.380;7.018;2023-03-14T04:38:33;9.10;99.90
39099;DHT22;24844;52.380;7.018;2023-03-14T04:40:59;9.20;99.90
39099;DHT22;24844;52.380;7.018;2023-03-14T04:43:25;9.20;99.90
39099;DHT22;24844;52.380;7.018;2023-03-14T04:45:54;9.20;99.90
39099;DHT22;24844;52.380;7.018;2023-03-14T04:48:20;9.30;99.90
39099;DHT22;24844;52.380;7.018;2023-03-14T04:50:46;9.30;99.90
39099;DHT22;24844;52.380;7.018;2023-03-14T04:53:12;9.20;99.90
39099;DHT22;24844;52.380;7.018;2023-03-14T04:55:38;9.30;99.90
39099;DHT22;24844;52.380;7.018;2023-03-14T04:58:04;9.40;99.90
39099;DHT22;24844;52.380;7.018;2023-03-14T05:00:29;9.30;99.90
39099;DHT22;24844;52.380;7.018;2023-03-14T05:02:55;9.20;99.90
39099;DHT22;24844;52.380;7.018;2023-03-14T05:05:21;9.20;99.90
39099;DHT22;24844;52.380;7.018;2023-03-14T05:07:46;9.40;99.90
39099;DHT22;24844;52.380;7.018;2023-03-14T05:10:12;9.20;99.90
39099;DHT22;24844;52.380;7.018;2023-03-14T05:12:38;9.30;99.90
39099;DHT22;24844;52.380;7.018;2023-03-14T05:15:04;9.30;99.90
39099;DHT22;24844;52.380;7.018;2023-03-14T05:17:32;9.20;99.90
39099;DHT22;24844;52.380;7.018;2023-03-14T05:19:57;9.20;99.90
39099;DHT22;24844;52.380;7.018;2023-03-14T05:22:23;9.20;99.90
39099;DHT22;24844;52.380;7.018;2023-03-14T05:24:48;9.30;99.90
39099;DHT22;24844;52.380;7.018;2023-03-14T05:27:14;9.20;99.90
39099;DHT22;24844;52.380;7.018;2023-03-14T05:29:40;9.20;99.90
39099;DHT22;24844;52.380;7.018;2023-03-14T05:32:05;9.10;99.90
39099;DHT22;24844;52.380;7.018;2023-03-14T05:34:31;9.10;99.90
39099;DHT22;24844;52.380;7.018;2023-03-14T05:36:56;9.20;99.90
39099;DHT22;24844;52.380;7.018;2023-03-14T05:39:23;9.20;99.90
39099;DHT22;24844;52.380;7.018;2023-03-14T05:41:49;9.20;99.90
39099;DHT22;24844;52.380;7.018;2023-03-14T05:44:14;9.20;99.90
39099;DHT22;24844;52.380;7.018;2023-03-14T05:46:40;9.10;99.90
39099;DHT22;24844;52.380;7.018;2023-03-14T05:49:06;9.10;99.90
39099;DHT22;24844;52.380;7.018;2023-03-14T05:51:31;9.20;99.90
39099;DHT22;24844;52.380;7.018;2023-03-14T05:53:57;9.20;99.90
39099;DHT22;24844;52.380;7.018;2023-03-14T05:56:22;9.30;99.90
39099;DHT22;24844;52.380;7.018;2023-03-14T05:58:48;9.20;99.90
39099;DHT22;24844;52.380;7.018;2023-03-14T06:01:14;9.10;99.90
39099;DHT22;24844;52.380;7.018;2023-03-14T06:03:39;9.10;99.90
39099;DHT22;24844;52.380;7.018;2023-03-14T06:06:05;9.10;99.90
39099;DHT22;24844;52.380;7.018;2023-03-14T06:08:31;9.10;99.90
39099;DHT22;24844;52.380;7.018;2023-03-14T06:10:57;9.20;99.90
39099;DHT22;24844;52.380;7.018;2023-03-14T06:13:23;9.20;99.90
39099;DHT22;24844;52.380;7.018;2023-03-14T06:15:49;9.30;99.90
39099;DHT22;24844;52.380;7.018;2023-03-14T06:18:14;9.30;99.90
39099;DHT22;24844;52.380;7.018;2023-03-14T06:20:40;9.30;99.90
39099;DHT22;24844;52.380;7.018;2023-03-14T06:23:07;9.50;99.90
39099;DHT22;24844;52.380;7.018;2023-03-14T06:25:33;9.40;99.90
39099;DHT22;24844;52.380;7.018;2023-03-14T06:27:59;9.60;99.90
39099;DHT22;24844;52.380;7.018;2023-03-14T06:30:25;9.40;99.90
39099;DHT22;24844;52.380;7.018;2023-03-14T06:32:51;9.50;99.90
39099;DHT22;24844;52.380;7.018;2023-03-14T06:35:17;9.50;99.90
39099;DHT22;24844;52.380;7.018;2023-03-14T06:37:42;9.60;99.90
39099;DHT22;24844;52.380;7.018;2023-03-14T06:40:10;9.70;99.90
39099;DHT22;24844;52.380;7.018;2023-03-14T06:42:38;9.80;99.90
39099;DHT22;24844;52.380;7.018;2023-03-14T06:45:03;9.90;99.90
39099;DHT22;24844;52.380;7.018;2023-03-14T06:47:29;9.80;99.90
39099;DHT22;24844;52.380;7.018;2023-03-14T06:49:55;9.80;99.90
39099;DHT22;24844;52.380;7.018;2023-03-14T06:52:20;9.80;99.90
39099;DHT22;24844;52.380;7.018;2023-03-14T06:54:46;9.80;99.90
39099;DHT22;24844;52.380;7.018;2023-03-14T06:57:12;9.80;99.90
39099;DHT22;24844;52.380;7.018;2023-03-14T06:59:37;9.90;99.90
39099;DHT22;24844;52.380;7.018;2023-03-14T07:02:03;9.90;99.90
39099;DHT22;24844;52.380;7.018;2023-03-14T07:04:28;10.00;99.90
39099;DHT22;24844;52.380;7.018;2023-03-14T07:06:54;9.90;99.90
39099;DHT22;24844;52.380;7.018;2023-03-14T07:09:20;10.10;99.90
39099;DHT22;24844;52.380;7.018;2023-03-14T07:11:45;10.00;99.90
39099;DHT22;24844;52.380;7.018;2023-03-14T07:14:11;9.80;99.90
39099;DHT22;24844;52.380;7.018;2023-03-14T07:16:36;10.00;99.90
39099;DHT22;24844;52.380;7.018;2023-03-14T07:19:02;9.90;99.90
39099;DHT22;24844;52.380;7.018;2023-03-14T07:21:28;9.90;99.90
39099;DHT22;24844;52.380;7.018;2023-03-14T07:23:54;9.80;99.90
39099;DHT22;24844;52.380;7.018;2023-03-14T07:26:20;9.80;99.90
39099;DHT22;24844;52.380;7.018;2023-03-14T07:28:46;9.80;99.90
39099;DHT22;24844;52.380;7.018;2023-03-14T07:31:11;9.80;99.90
39099;DHT22;24844;52.380;7.018;2023-03-14T07:33:37;9.70;99.90
39099;DHT22;24844;52.380;7.018;2023-03-14T07:36:03;9.70;99.90
39099;DHT22;24844;52.380;7.018;2023-03-14T07:38:29;9.90;99.90
39099;DHT22;24844;52.380;7.018;2023-03-14T07:41:03;9.70;99.90
39099;DHT22;24844;52.380;7.018;2023-03-14T07:43:29;9.80;99.90
39099;DHT22;24844;52.380;7.018;2023-03-14T07:45:54;9.90;99.90
39099;DHT22;24844;52.380;7.018;2023-03-14T07:48:20;9.80;99.90
39099;DHT22;24844;52.380;7.018;2023-03-14T07:50:51;9.90;99.90
39099;DHT22;24844;52.380;7.018;2023-03-14T07:53:18;9.90;99.90
39099;DHT22;24844;52.380;7.018;2023-03-14T07:55:44;10.00;99.90
39099;DHT22;24844;52.380;7.018;2023-03-14T07:58:10;9.80;99.90
39099;DHT22;24844;52.380;7.018;2023-03-14T08:00:36;9.70;99.90
39099;DHT22;24844;52.380;7.018;2023-03-14T08:03:01;9.70;99.90
39099;DHT22;24844;52.380;7.018;2023-03-14T08:05:27;9.70;99.90
39099;DHT22;24844;52.380;7.018;2023-03-14T08:07:53;9.90;99.90
39099;DHT22;24844;52.380;7.018;2023-03-14T08:10:18;10.00;99.90
39099;DHT22;24844;52.380;7.018;2023-03-14T08:12:51;10.10;99.90
39099;DHT22;24844;52.380;7.018;2023-03-14T08:15:16;10.20;99.90
39099;DHT22;24844;52.380;7.018;2023-03-14T08:17:42;10.40;99.90
39099;DHT22;24844;52.380;7.018;2023-03-14T08:20:08;10.30;99.90
39099;DHT22;24844;52.380;7.018;2023-03-14T08:22:36;10.30;99.90
39099;DHT22;24844;52.380;7.018;2023-03-14T08:25:02;10.10;99.90
39099;DHT22;24844;52.380;7.018;2023-03-14T08:27:28;9.40;99.90
39099;DHT22;24844;52.380;7.018;2023-03-14T08:29:54;9.10;99.90
39099;DHT22;24844;52.380;7.018;2023-03-14T08:32:19;9.10;99.90
39099;DHT22;24844;52.380;7.018;2023-03-14T08:34:46;8.90;99.90
39099;DHT22;24844;52.380;7.018;2023-03-14T08:37:11;9.10;99.90
39099;DHT22;24844;52.380;7.018;2023-03-14T08:39:37;8.90;99.90
39099;DHT22;24844;52.380;7.018;2023-03-14T08:42:03;8.80;99.90
39099;DHT22;24844;52.380;7.018;2023-03-14T08:44:28;8.90;99.90
39099;DHT22;24844;52.380;7.018;2023-03-14T08:46:54;8.90;99.90
39099;DHT22;24844;52.380;7.018;2023-03-14T08:49:20;8.90;99.90
39099;DHT22;24844;52.380;7.018;2023-03-14T08:51:46;9.10;99.90
39099;DHT22;24844;52.380;7.018;2023-03-14T08:54:11;9.00;99.90
39099;DHT22;24844;52.380;7.018;2023-03-14T08:56:37;8.90;99.90
39099;DHT22;24844;52.380;7.018;2023-03-14T08:59:05;8.70;99.90
39099;DHT22;24844;52.380;7.018;2023-03-14T09:01:31;8.40;99.90
39099;DHT22;24844;52.380;7.018;2023-03-14T09:03:57;8.00;99.90
39099;DHT22;24844;52.380;7.018;2023-03-14T09:06:23;7.80;99.90
39099;DHT22;24844;52.380;7.018;2023-03-14T09:08:49;7.60;99.90
39099;DHT22;24844;52.380;7.018;2023-03-14T09:11:14;7.30;99.90
39099;DHT22;24844;52.380;7.018;2023-03-14T09:13:40;7.00;99.90
39099;DHT22;24844;52.380;7.018;2023-03-14T09:16:07;6.80;99.90
39099;DHT22;24844;52.380;7.018;2023-03-14T09:18:33;6.50;99.90
39099;DHT22;24844;52.380;7.018;2023-03-14T09:20:58;6.40;99.90
39099;DHT22;24844;52.380;7.018;2023-03-14T09:23:24;6.30;99.90
39099;DHT22;24844;52.380;7.018;2023-03-14T09:25:55;6.20;99.90
39099;DHT22;24844;52.380;7.018;2023-03-14T09:28:21;6.20;99.90
39099;DHT22;24844;52.380;7.018;2023-03-14T09:30:46;6.10;99.90
39099;DHT22;24844;52.380;7.018;2023-03-14T09:33:12;6.10;99.90
39099;DHT22;24844;52.380;7.018;2023-03-14T09:35:38;5.80;99.90
39099;DHT22;24844;52.380;7.018;2023-03-14T09:38:03;5.50;99.90
39099;DHT22;24844;52.380;7.018;2023-03-14T09:40:33;5.20;99.90
39099;DHT22;24844;52.380;7.018;2023-03-14T09:42:59;5.20;99.90
39099;DHT22;24844;52.380;7.018;2023-03-14T09:45:28;5.30;99.90
39099;DHT22;24844;52.380;7.018;2023-03-14T09:47:55;5.40;99.90
39099;DHT22;24844;52.380;7.018;2023-03-14T09:50:23;5.30;99.90
39099;DHT22;24844;52.380;7.018;2023-03-14T09:52:52;5.40;99.90
39099;DHT22;24844;52.380;7.018;2023-03-14T09:55:22;5.30;99.90
39099;DHT22;24844;52.380;7.018;2023-03-14T09:57:50;5.40;99.90
39099;DHT22;24844;52.380;7.018;2023-03-14T10:00:23;5.60;99.90
39099;DHT22;24844;52.380;7.018;2023-03-14T10:02:56;5.30;99.90
39099;DHT22;24844;52.380;7.018;2023-03-14T10:05:24;5.50;99.90
39099;DHT22;24844;52.380;7.018;2023-03-14T10:07:50;5.50;99.90
39099;DHT22;24844;52.380;7.018;2023-03-14T10:10:19;5.50;99.90
39099;DHT22;24844;52.380;7.018;2023-03-14T10:12:47;5.50;99.90
39099;DHT22;24844;52.380;7.018;2023-03-14T10:15:15;5.60;99.90
39099;DHT22;24844;52.380;7.018;2023-03-14T10:17:49;5.60;99.90
39099;DHT22;24844;52.380;7.018;2023-03-14T10:20:31;5.70;99.90
39099;DHT22;24844;52.380;7.018;2023-03-14T10:23:04;6.00;99.90
39099;DHT22;24844;52.380;7.018;2023-03-14T10:25:36;5.80;99.90
39099;DHT22;24844;52.380;7.018;2023-03-14T10:28:03;5.70;99.90
39099;DHT22;24844;52.380;7.018;2023-03-14T10:30:44;5.70;99.90
39099;DHT22;24844;52.380;7.018;2023-03-14T10:35:41;6.00;99.90
39099;DHT22;24844;52.380;7.018;2023-03-14T10:38:13;6.30;99.90
39099;DHT22;24844;52.380;7.018;2023-03-14T10:40:41;6.10;99.90
39099;DHT22;24844;52.380;7.018;2023-03-14T10:43:16;6.20;99.90
39099;DHT22;24844;52.380;7.018;2023-03-14T10:45:44;6.50;99.90
39099;DHT22;24844;52.380;7.018;2023-03-14T10:50:57;6.80;99.90
39099;DHT22;24844;52.380;7.018;2023-03-14T10:53:24;6.70;99.90
39099;DHT22;24844;52.380;7.018;2023-03-14T10:55:50;6.90;99.90
39099;DHT22;24844;52.380;7.018;2023-03-14T10:58:23;7.00;99.90
39099;DHT22;24844;52.380;7.018;2023-03-14T11:01:02;6.90;99.90
39099;DHT22;24844;52.380;7.018;2023-03-14T11:03:33;7.20;99.90
39099;DHT22;24844;52.380;7.018;2023-03-14T11:06:06;7.40;99.90
39099;DHT22;24844;52.380;7.018;2023-03-14T11:08:51;7.10;99.90
39099;DHT22;24844;52.380;7.018;2023-03-14T11:14:12;6.70;99.90
39099;DHT22;24844;52.380;7.018;2023-03-14T11:19:47;6.40;99.90
39099;DHT22;24844;52.380;7.018;2023-03-14T11:22:43;6.40;99.90
39099;DHT22;24844;52.380;7.018;2023-03-14T11:25:32;6.40;99.90
39099;DHT22;24844;52.380;7.018;2023-03-14T11:28:26;6.00;99.90
39099;DHT22;24844;52.380;7.018;2023-03-14T11:31:04;5.80;99.90
39099;DHT22;24844;52.380;7.018;2023-03-14T11:36:33;5.90;99.90
39099;DHT22;24844;52.380;7.018;2023-03-14T11:39:10;6.00;99.90
39099;DHT22;24844;52.380;7.018;2023-03-14T11:41:40;6.10;99.90
39099;DHT22;24844;52.380;7.018;2023-03-14T11:44:33;6.00;99.90
39099;DHT22;24844;52.380;7.018;2023-03-14T11:47:05;6.10;99.90
39099;DHT22;24844;52.380;7.018;2023-03-14T11:49:40;5.80;99.90
39099;DHT22;24844;52.380;7.018;2023-03-14T11:52:32;5.70;99.90
39099;DHT22;24844;52.380;7.018;2023-03-14T11:55:09;5.90;99.90
39099;DHT22;24844;52.380;7.018;2023-03-14T11:57:36;6.20;99.90
39099;DHT22;24844;52.380;7.018;2023-03-14T12:10:45;6.60;99.90
39099;DHT22;24844;52.380;7.018;2023-03-14T12:13:14;6.40;99.90
39099;DHT22;24844;52.380;7.018;2023-03-14T12:15:53;6.60;99.90
39099;DHT22;24844;52.380;7.018;2023-03-14T12:18:28;6.80;99.90
39099;DHT22;24844;52.380;7.018;2023-03-14T12:21:09;6.60;99.90
39099;DHT22;24844;52.380;7.018;2023-03-14T12:26:20;6.00;99.90
39099;DHT22;24844;52.380;7.018;2023-03-14T12:29:11;5.90;99.90
39099;DHT22;24844;52.380;7.018;2023-03-14T12:32:06;6.00;99.90
39099;DHT22;24844;52.380;7.018;2023-03-14T12:34:40;6.10;99.90
39099;DHT22;24844;52.380;7.018;2023-03-14T12:40:13;6.30;99.90
39099;DHT22;24844;52.380;7.018;2023-03-14T12:43:01;6.30;99.90
39099;DHT22;24844;52.380;7.018;2023-03-14T12:45:37;6.30;99.90
39099;DHT22;24844;52.380;7.018;2023-03-14T12:48:22;6.20;99.90
39099;DHT22;24844;52.380;7.018;2023-03-14T12:51:03;6.20;99.90
39099;DHT22;24844;52.380;7.018;2023-03-14T13:01:17;6.10;99.90
39099;DHT22;24844;52.380;7.018;2023-03-14T13:03:52;6.10;99.90
39099;DHT22;24844;52.380;7.018;2023-03-14T13:06:55;6.30;99.90
39099;DHT22;24844;52.380;7.018;2023-03-14T13:12:11;6.20;99.90
39099;DHT22;24844;52.380;7.018;2023-03-14T13:14:43;6.30;99.90
39099;DHT22;24844;52.380;7.018;2023-03-14T13:17:12;6.00;99.90
39099;DHT22;24844;52.380;7.018;2023-03-14T13:19:38;5.80;99.90
39099;DHT22;24844;52.380;7.018;2023-03-14T13:22:06;5.80;99.90
39099;DHT22;24844;52.380;7.018;2023-03-14T13:24:38;5.50;99.90
39099;DHT22;24844;52.380;7.018;2023-03-14T13:27:04;5.50;99.90
39099;DHT22;24844;52.380;7.018;2023-03-14T13:29:31;5.80;99.90
39099;DHT22;24844;52.380;7.018;2023-03-14T13:31:59;5.90;99.90
39099;DHT22;24844;52.380;7.018;2023-03-14T13:34:32;5.80;99.90
39099;DHT22;24844;52.380;7.018;2023-03-14T13:36:59;5.70;99.90
39099;DHT22;24844;52.380;7.018;2023-03-14T13:39:27;5.70;99.90
39099;DHT22;24844;52.380;7.018;2023-03-14T13:41:57;5.40;99.90
39099;DHT22;24844;52.380;7.018;2023-03-14T13:44:33;5.30;99.90
39099;DHT22;24844;52.380;7.018;2023-03-14T13:47:05;5.10;99.90
39099;DHT22;24844;52.380;7.018;2023-03-14T13:49:33;5.10;99.90
39099;DHT22;24844;52.380;7.018;2023-03-14T13:52:01;4.90;99.90
39099;DHT22;24844;52.380;7.018;2023-03-14T13:54:27;5.10;99.90
39099;DHT22;24844;52.380;7.018;2023-03-14T13:57:01;4.90;99.90
39099;DHT22;24844;52.380;7.018;2023-03-14T13:59:29;5.00;99.90
39099;DHT22;24844;52.380;7.018;2023-03-14T14:01:57;5.10;99.90
39099;DHT22;24844;52.380;7.018;2023-03-14T14:04:24;5.30;99.90
39099;DHT22;24844;52.380;7.018;2023-03-14T14:06:59;5.50;99.90
39099;DHT22;24844;52.380;7.018;2023-03-14T14:09:35;5.60;99.90
39099;DHT22;24844;52.380;7.018;2023-03-14T14:12:12;5.70;99.90
39099;DHT22;24844;52.380;7.018;2023-03-14T14:14:41;5.70;99.90
39099;DHT22;24844;52.380;7.018;2023-03-14T14:17:13;5.80;99.90
39099;DHT22;24844;52.380;7.018;2023-03-14T14:19:40;5.70;99.90
39099;DHT22;24844;52.380;7.018;2023-03-14T14:22:08;5.60;99.90
39099;DHT22;24844;52.380;7.018;2023-03-14T14:24:36;5.60;99.90
39099;DHT22;24844;52.380;7.018;2023-03-14T14:27:12;5.70;99.90
39099;DHT22;24844;52.380;7.018;2023-03-14T14:29:38;5.50;99.90
39099;DHT22;24844;52.380;7.018;2023-03-14T14:34:40;5.60;99.90
39099;DHT22;24844;52.380;7.018;2023-03-14T14:37:59;5.60;99.90
39099;DHT22;24844;52.380;7.018;2023-03-14T14:40:13;5.70;99.90
39099;DHT22;24844;52.380;7.018;2023-03-14T14:42:41;5.50;99.90
39099;DHT22;24844;52.380;7.018;2023-03-14T14:45:13;5.30;99.90
39099;DHT22;24844;52.380;7.018;2023-03-14T14:47:55;5.70;99.90
39099;DHT22;24844;52.380;7.018;2023-03-14T14:50:33;5.80;99.90
39099;DHT22;24844;52.380;7.018;2023-03-14T14:53:02;5.50;99.90
39099;DHT22;24844;52.380;7.018;2023-03-14T14:55:39;5.70;99.90
39099;DHT22;24844;52.380;7.018;2023-03-14T14:58:25;5.30;99.90
39099;DHT22;24844;52.380;7.018;2023-03-14T15:01:05;5.50;99.90
39099;DHT22;24844;52.380;7.018;2023-03-14T15:03:33;5.20;99.90
39099;DHT22;24844;52.380;7.018;2023-03-14T15:06:01;5.20;99.90
39099;DHT22;24844;52.380;7.018;2023-03-14T15:08:27;4.90;99.90
39099;DHT22;24844;52.380;7.018;2023-03-14T15:10:54;5.10;99.90
39099;DHT22;24844;52.380;7.018;2023-03-14T15:13:19;4.80;99.90
39099;DHT22;24844;52.380;7.018;2023-03-14T15:15:45;4.80;99.90
39099;DHT22;24844;52.380;7.018;2023-03-14T15:18:17;5.00;99.90
39099;DHT22;24844;52.380;7.018;2023-03-14T15:20:46;4.90;99.90
39099;DHT22;24844;52.380;7.018;2023-03-14T15:23:12;4.90;99.90
39099;DHT22;24844;52.380;7.018;2023-03-14T15:25:39;5.00;99.90
39099;DHT22;24844;52.380;7.018;2023-03-14T15:28:17;5.10;99.90
39099;DHT22;24844;52.380;7.018;2023-03-14T15:30:45;5.10;99.90
39099;DHT22;24844;52.380;7.018;2023-03-14T15:33:11;5.20;99.90
39099;DHT22;24844;52.380;7.018;2023-03-14T15:35:37;5.00;99.90
39099;DHT22;24844;52.380;7.018;2023-03-14T15:38:03;4.90;99.90
39099;DHT22;24844;52.380;7.018;2023-03-14T15:40:29;4.70;99.90
39099;DHT22;24844;52.380;7.018;2023-03-14T15:42:55;5.00;99.90
39099;DHT22;24844;52.380;7.018;2023-03-14T15:45:21;5.00;99.90
39099;DHT22;24844;52.380;7.018;2023-03-14T15:47:46;5.10;99.90
39099;DHT22;24844;52.380;7.018;2023-03-14T15:50:12;5.10;99.90
39099;DHT22;24844;52.380;7.018;2023-03-14T15:52:38;4.80;99.90
39099;DHT22;24844;52.380;7.018;2023-03-14T15:55:04;5.10;99.90
39099;DHT22;24844;52.380;7.018;2023-03-14T15:57:29;4.80;99.90
39099;DHT22;24844;52.380;7.018;2023-03-14T15:59:55;4.50;99.90
39099;DHT22;24844;52.380;7.018;2023-03-14T16:02:21;4.40;99.90
39099;DHT22;24844;52.380;7.018;2023-03-14T16:04:47;4.20;99.90
39099;DHT22;24844;52.380;7.018;2023-03-14T16:07:15;4.30;99.90
39099;DHT22;24844;52.380;7.018;2023-03-14T16:09:43;4.20;99.90
39099;DHT22;24844;52.380;7.018;2023-03-14T16:12:09;4.40;99.90
39099;DHT22;24844;52.380;7.018;2023-03-14T16:14:36;4.60;99.90
39099;DHT22;24844;52.380;7.018;2023-03-14T16:17:02;4.70;99.90
39099;DHT22;24844;52.380;7.018;2023-03-14T16:19:27;4.80;99.90
39099;DHT22;24844;52.380;7.018;2023-03-14T16:21:53;4.40;99.90
39099;DHT22;24844;52.380;7.018;2023-03-14T16:24:19;4.40;99.90
39099;DHT22;24844;52.380;7.018;2023-03-14T16:26:45;4.20;99.90
39099;DHT22;24844;52.380;7.018;2023-03-14T16:29:12;4.20;99.90
39099;DHT22;24844;52.380;7.018;2023-03-14T16:31:37;4.30;99.90
39099;DHT22;24844;52.380;7.018;2023-03-14T16:34:08;4.20;99.90
39099;DHT22;24844;52.380;7.018;2023-03-14T16:36:34;4.20;99.90
39099;DHT22;24844;52.380;7.018;2023-03-14T16:38:59;4.40;99.90
39099;DHT22;24844;52.380;7.018;2023-03-14T16:41:25;4.40;99.90